This is the latest recevied weather packets stored in our database for station/object N2ZVN. If no packets are shown the sender has not sent any weather packets the latest 10 day(s).
| Time | Temp. | Humidity | Pressure | Rain* | Wind** | Luminosity | Snow |
|---|---|---|---|---|---|---|---|
| 1777733648 | 6.67° C | 51% | 1015.7 hPa | 0 mm | - | 839 W/m² | - |
| 1777733344 | 7.78° C | 51% | 1015.7 hPa | 0 mm | - | 155 W/m² | - |
| 1777733041 | 6.67° C | 63% | 1015.5 hPa | 0 mm | - | 834 W/m² | - |
| 1777732737 | 6.67° C | 59% | 1015.7 hPa | 0 mm | - | 409 W/m² | - |
| 1777732434 | 6.67° C | 52% | 1015.4 hPa | 0 mm | - | 218 W/m² | - |
| 1777732132 | 6.11° C | 51% | 1015.7 hPa | 0 mm | - | 804 W/m² | - |
| 1777731828 | 6.67° C | 53% | 1015.5 hPa | 0 mm | - | 146 W/m² | - |
| 1777731525 | 6.11° C | 60% | 1015.5 hPa | 0 mm | - | 412 W/m² | - |
| 1777731223 | 6.67° C | 57% | 1015.6 hPa | 0 mm | - | 174 W/m² | - |
| 1777730920 | 7.22° C | 57% | 1015.6 hPa | 0 mm | - | 159 W/m² | - |
| 1777730618 | 6.11° C | 64% | 1015.6 hPa | 0 mm | - | 752 W/m² | - |
| 1777730314 | 5.56° C | 60% | 1015.9 hPa | 0 mm | - | 676 W/m² | - |
| 1777730011 | 6.11° C | 60% | 1016 hPa | 0 mm | - | 114 W/m² | - |
| 1777729707 | 6.67° C | 58% | 1015.5 hPa | 0 mm | - | 700 W/m² | - |
| 1777729404 | 6.11° C | 63% | 1015.8 hPa | 0 mm | - | 698 W/m² | - |
| 1777729100 | 6.11° C | 63% | 1016.1 hPa | 0 mm | - | 167 W/m² | - |
| 1777728797 | 6.11° C | 60% | 1016 hPa | 0 mm | - | 123 W/m² | - |
| 1777728494 | 5.56° C | 63% | 1016 hPa | 0 mm | - | 606 W/m² | - |
| 1777728192 | 6.11° C | 64% | 1016 hPa | 0 mm | - | 183 W/m² | - |
| 1777727889 | 5.56° C | 64% | 1016 hPa | 0 mm | - | 180 W/m² | - |
| 1777727586 | 6.11° C | 62% | 1015.9 hPa | 0 mm | - | 123 W/m² | - |
| 1777727283 | 6.11° C | 63% | 1016 hPa | 0 mm | - | 541 W/m² | - |
| 1777726980 | 6.11° C | 67% | 1016 hPa | 0 mm | - | 442 W/m² | - |
| 1777726676 | 6.11° C | 66% | 1015.9 hPa | 0 mm | - | 407 W/m² | - |
| 1777726374 | 5.56° C | 68% | 1016 hPa | 0 mm | - | 377 W/m² | - |
* Rain latest hour (hover to see other rain measurements)
** Current wind speed in m/s (hover to see current wind gust speed)